nws-alerts: Checking more than four warning/county codes can delay the loading of your pages. You should use a cron job to get the data.

Nearby METAR Reports

 

KOXC - Oxford/Waterbury, Connecticut, USA
Distance from station: NW 7mi, 11km
Updated: 10/06/2022 10:51pm
Clear
Clear
 Wind from calm
Wind: Calm
Temperature: 54°F , 12°C
Dew Point: 54°F , 12°C
Humidity: 100%
Barometer: 29.97 inHg , 1014.9 hPa
Clouds: Clear
Visibility: 10 miles , 16 km
2022/10/07 02:51 KOXC 070251Z AUTO 00000KT 10SM CLR 12/12 A2997 RMK AO2 SLP160 T01220122 50000
KHVN - New Haven/Tweed, Connecticut, USA
Distance from station: SE 13mi, 20km
Updated: 10/06/2022 10:53pm
Clear
Clear
 Wind from calm
Wind: Calm
Temperature: 57°F , 14°C
Dew Point: 55°F , 13°C
Humidity: 94%
Barometer: 29.96 inHg , 1014.6 hPa
Clouds: Clear
Visibility: 10 miles , 16 km
2022/10/07 02:53 KHVN 070253Z AUTO 00000KT 10SM CLR 14/13 A2996 RMK AO2 SLP144 T01390128 50002
 
KMMK - Meriden, Connecticut, USA
Distance from station: NE 13mi, 21km
Updated: 10/06/2022 10:53pm
Clear
Clear
 Wind from calm
Wind: Calm
Temperature: 52°F , 11°C
Dew Point: 50°F , 10°C
Humidity: 94%
Barometer: 29.96 inHg , 1014.6 hPa
Clouds: Clear
Visibility: 10 miles , 16 km
2022/10/07 02:53 KMMK 070253Z AUTO 00000KT 10SM CLR 11/10 A2996 RMK AO2 SLP145 T01110100 51003
KBDR - Bridgeport, Connecticut, USA
Distance from station: SSW 17mi, 27km
Updated: 10/06/2022 10:52pm
Clear
Clear
 Wind from calm
Wind: Calm
Temperature: 57°F , 14°C
Dew Point: 54°F , 12°C
Humidity: 88%
Barometer: 29.96 inHg , 1014.6 hPa
Clouds: Clear
Visibility: 10 miles , 16 km
2022/10/07 02:52 KBDR 070252Z AUTO 00000KT 10SM CLR 14/12 A2996 RMK AO2 SLP143 T01440122 50001
 
KDXR - Danbury, Connecticut, USA
Distance from station: W 23mi, 38km
Updated: 10/06/2022 10:53pm
Clear
Clear
 Wind from WSW
Wind: WSW 3 mph , 6 km/h
Temperature: 54°F , 12°C
Dew Point: 52°F , 11°C
Humidity: 94%
Barometer: 29.98 inHg , 1015.2 hPa
Clouds: Clear
Visibility: 10 miles , 16 km
2022/10/07 02:53 KDXR 070253Z AUTO 24003KT 10SM CLR 12/11 A2998 RMK AO2 SLP150 T01220106 52002